.
WxDataArchive / Data Records for 2006-06-13
2006-06-12 June 2006 2006-06-14

Data Records for Tuesday, 13 June 2006

Time	Temp	Chill	HIndex	Humid	Dewpt	 Wind 	HiWind	WindDir	Rain 	Barom 
-----	----	-----	------	-----	-----	------	------	-------	-----	----- 
00:00	57.3	57.3	57.3	84	52.5	0	0	---	0.00	30.062 
00:05	57.2	57.2	57.2	84	52.4	0	0	---	0.00	30.062 
00:10	57.0	57.0	57.0	84	52.2	0	0	---	0.00	30.062 
00:15	56.9	56.9	56.9	84	52.1	0	0	---	0.00	30.064 
00:20	56.7	56.7	56.7	85	52.2	0	0	---	0.00	30.064 
00:25	56.7	56.7	56.7	85	52.2	0	0	---	0.00	30.064 
00:30	56.6	56.6	56.6	85	52.1	0	0	---	0.00	30.065 
00:35	56.5	56.5	56.5	85	52.0	0	0	---	0.00	30.065 
00:40	56.3	56.3	56.3	85	51.8	0	0	---	0.00	30.065 
00:45	56.2	56.2	56.2	85	51.7	0	0	---	0.00	30.063 
00:50	56.0	56.0	56.0	86	51.9	0	0	---	0.00	30.063 
00:55	55.9	55.9	55.9	86	51.8	0	0	---	0.00	30.063 
01:00	55.7	55.7	55.7	86	51.6	0	0	---	0.00	30.063 
01:05	55.6	55.6	55.6	87	51.8	0	0	---	0.00	30.063 
01:10	55.6	55.6	55.6	87	51.8	0	0	---	0.00	30.063 
01:15	55.4	55.4	55.4	87	51.6	0	0	---	0.00	30.064 
01:20	55.3	55.3	55.3	87	51.5	0	0	---	0.00	30.064 
01:25	55.1	55.1	55.1	88	51.6	0	0	---	0.00	30.064 
01:30	55.0	55.0	55.0	88	51.5	0	0	---	0.00	30.061 
01:35	54.8	54.8	54.8	88	51.3	0	0	---	0.00	30.061 
01:40	54.7	54.7	54.7	88	51.2	0	0	---	0.00	30.061 
01:45	54.5	54.5	54.5	88	51.0	0	0	---	0.00	30.066 
01:50	54.4	54.4	54.4	88	50.9	0	0	---	0.00	30.066 
01:55	54.2	54.2	54.2	89	51.0	0	0	---	0.00	30.066 
02:00	54.2	54.2	54.2	89	51.0	0	0	---	0.00	30.069 
02:05	54.1	54.1	54.1	89	50.9	0	0	---	0.00	30.069 
02:10	53.9	53.9	53.9	89	50.7	0	0	---	0.00	30.069 
02:15	53.9	53.9	53.9	90	51.0	0	0	---	0.00	30.067 
02:20	53.8	53.8	53.8	90	50.9	0	0	---	0.00	30.067 
02:25	53.6	53.6	53.6	90	50.7	0	0	---	0.00	30.067 
02:30	53.6	53.6	53.6	90	50.7	0	0	---	0.00	30.067 
02:35	53.5	53.5	53.5	90	50.6	0	0	---	0.00	30.067 
02:40	53.3	53.3	53.3	91	50.7	0	0	---	0.00	30.067 
02:45	53.3	53.3	53.3	91	50.7	0	0	---	0.00	30.069 
02:50	53.2	53.2	53.2	91	50.6	0	0	---	0.00	30.069 
02:55	53.1	53.1	53.1	91	50.5	0	0	---	0.00	30.069 
03:00	53.1	53.1	53.1	91	50.5	0	0	---	0.00	30.074 
03:05	52.9	52.9	52.9	91	50.3	0	0	---	0.00	30.074 
03:10	52.9	52.9	52.9	91	50.3	0	0	---	0.00	30.074 
03:15	52.9	52.9	52.9	91	50.3	0	0	---	0.00	30.074 
03:20	52.8	52.8	52.8	92	50.5	0	0	---	0.00	30.074 
03:25	52.8	52.8	52.8	92	50.5	0	0	---	0.00	30.074 
03:30	52.6	52.6	52.6	92	50.3	0	0	---	0.00	30.070 
03:35	52.5	52.5	52.5	92	50.2	0	0	---	0.00	30.070 
03:40	52.5	52.5	52.5	92	50.2	0	0	---	0.00	30.070 
03:45	52.5	52.5	52.5	92	50.2	0	0	---	0.00	30.071 
03:50	52.3	52.3	52.3	92	50.0	0	0	---	0.00	30.071 
03:55	52.3	52.3	52.3	92	50.0	0	0	---	0.00	30.071 
04:00	52.2	52.2	52.2	92	49.9	0	0	---	0.00	30.075 
04:05	52.0	52.0	52.0	92	49.7	0	0	---	0.00	30.075 
04:10	52.0	52.0	52.0	92	49.7	0	0	---	0.00	30.075 
04:15	52.0	52.0	52.0	93	50.0	0	0	---	0.00	30.074 
04:20	52.0	52.0	52.0	93	50.0	0	0	---	0.00	30.074 
04:25	51.9	51.9	51.9	93	49.9	0	0	---	0.00	30.074 
04:30	51.9	51.9	51.9	93	49.9	0	0	---	0.00	30.076 
04:35	51.9	51.9	51.9	93	49.9	0	0	---	0.00	30.076 
04:40	51.9	51.9	51.9	93	49.9	0	0	---	0.00	30.076 
04:45	51.7	51.7	51.7	93	49.7	0	0	---	0.00	30.076 
04:50	51.9	51.9	51.9	94	50.2	0	0	---	0.00	30.076 
04:55	51.7	51.7	51.7	94	50.0	0	0	---	0.00	30.076 
05:00	51.7	51.7	51.7	94	50.0	0	0	---	0.00	30.076 
05:05	51.6	51.6	51.6	94	49.9	0	0	---	0.00	30.076 
05:10	51.6	51.6	51.6	94	49.9	0	0	---	0.00	30.076 
05:15	51.6	51.6	51.6	94	49.9	0	0	---	0.00	30.082 
05:20	51.4	51.4	51.4	94	49.7	0	0	---	0.00	30.082 
05:25	51.3	51.3	51.3	94	49.6	0	0	---	0.00	30.082 
05:30	51.3	51.3	51.3	94	49.6	0	0	---	0.00	30.085 
05:35	51.3	51.3	51.3	94	49.6	0	0	---	0.00	30.085 
05:40	51.1	51.1	51.1	94	49.4	0	0	---	0.00	30.085 
05:45	51.0	51.0	51.0	94	49.3	0	0	---	0.00	30.083 
05:50	51.0	51.0	51.0	94	49.3	0	0	---	0.00	30.083 
05:55	50.8	50.8	50.8	94	49.1	0	0	---	0.00	30.083 
06:00	50.8	50.8	50.8	94	49.1	0	0	---	0.00	30.084 
06:05	50.8	50.8	50.8	94	49.1	0	0	---	0.00	30.084 
06:10	51.0	51.0	51.0	94	49.3	0	0	---	0.00	30.084 
06:15	51.0	51.0	51.0	94	49.3	0	0	---	0.00	30.086 
06:20	51.0	51.0	51.0	94	49.3	0	0	---	0.00	30.086 
06:25	51.0	51.0	51.0	94	49.3	0	0	---	0.00	30.086 
06:30	51.0	51.0	51.0	94	49.3	0	0	---	0.00	30.087 
06:35	51.0	51.0	51.0	94	49.3	0	0	---	0.00	30.087 
06:40	51.1	51.1	51.1	94	49.4	0	0	---	0.00	30.087 
06:45	51.4	51.4	51.4	95	50.0	0	0	---	0.00	30.088 
06:50	51.6	51.6	51.6	95	50.2	0	0	---	0.00	30.088 
06:55	51.9	51.9	51.9	95	50.5	0	0	---	0.00	30.088 
07:00	52.2	52.2	52.2	95	50.8	0	0	---	0.00	30.087 
07:05	52.5	52.5	52.5	95	51.1	0	0	---	0.00	30.087 
07:10	52.6	52.6	52.6	95	51.2	0	0	---	0.00	30.087 
07:15	53.1	53.1	53.1	95	51.7	0	0	---	0.00	30.086 
07:20	53.8	53.8	53.8	96	52.7	0	0	---	0.00	30.086 
07:25	54.2	54.2	54.2	96	53.1	0	0	---	0.00	30.086 
07:30	54.7	54.7	54.7	96	53.6	0	0	---	0.00	30.086 
07:35	55.4	55.4	55.4	96	54.3	0	0	---	0.00	30.086 
07:40	56.0	56.0	56.0	96	54.9	0	0	---	0.00	30.086 
07:45	56.6	56.6	56.6	96	55.5	0	0	---	0.00	30.082 
07:50	57.2	57.2	57.2	95	55.8	0	0	---	0.00	30.082 
07:55	57.5	57.5	57.5	94	55.8	0	0	---	0.00	30.082 
08:00	58.0	58.0	58.0	92	55.7	0	0	---	0.00	30.082 
08:05	58.4	58.4	58.4	91	55.8	0	0	---	0.00	30.082 
08:10	58.9	58.9	58.9	88	55.3	0	0	---	0.00	30.082 
08:15	59.5	59.5	59.5	86	55.3	0	0	---	0.00	30.081 
08:20	60.2	60.2	60.2	82	54.7	0	1	90	0.00	30.081 
08:25	61.0	61.0	61.0	79	54.4	0	1	90	0.00	30.081 
08:30	61.5	61.5	61.5	78	54.6	0	0	---	0.00	30.081 
08:35	62.0	62.0	62.0	77	54.7	0	0	---	0.00	30.081 
08:40	62.9	62.9	62.9	78	55.9	0	0	---	0.00	30.081 
08:45	63.4	63.4	63.4	72	54.2	0	1	90	0.00	30.083 
08:50	64.2	64.2	64.2	70	54.2	0	1	90	0.00	30.083 
08:55	65.0	65.0	65.0	69	54.6	0	1	90	0.00	30.083 
09:00	65.8	65.8	65.8	69	55.3	0	2	90	0.00	30.080 
09:05	65.8	65.8	65.8	67	54.5	0	1	90	0.00	30.080 
09:10	66.1	66.1	66.1	67	54.8	0	1	90	0.00	30.080 
09:15	66.4	66.4	66.4	65	54.3	0	1	90	0.00	30.086 
09:20	66.9	66.9	66.9	65	54.7	0	1	90	0.00	30.086 
09:25	67.4	67.4	67.4	63	54.4	0	1	90	0.00	30.086 
09:30	68.1	68.1	68.1	61	54.1	1	2	90	0.00	30.093 
09:35	68.4	68.4	68.4	59	53.5	0	2	90	0.00	30.093 
09:40	68.9	68.9	68.9	59	54.0	0	2	90	0.00	30.093 
09:45	69.3	69.3	69.3	59	54.3	1	2	90	0.00	30.092 
09:50	69.3	69.3	69.3	61	55.3	1	2	90	0.00	30.092 
09:55	69.3	69.3	69.3	62	55.7	0	2	90	0.00	30.092 
10:00	69.8	69.8	69.8	57	53.9	0	2	90	0.00	30.088 
10:05	70.3	70.3	70.3	58	54.8	1	3	90	0.00	30.088 
10:10	70.4	70.4	70.4	56	53.9	1	3	90	0.00	30.088 
10:15	70.6	70.6	70.6	55	53.6	0	1	90	0.00	30.095 
10:20	70.3	70.3	70.3	58	54.8	1	2	90	0.00	30.095 
10:25	70.1	70.1	70.1	55	53.2	1	2	90	0.00	30.095 
10:30	70.6	70.6	70.6	55	53.6	1	3	90	0.00	30.094 
10:35	71.3	71.3	71.3	55	54.3	0	3	90	0.00	30.094 
10:40	71.3	71.3	71.3	59	56.2	0	3	90	0.00	30.094 
10:45	71.8	71.8	71.8	52	53.2	1	3	90	0.00	30.086 
10:50	72.0	72.0	72.0	57	55.9	1	2	90	0.00	30.086 
10:55	71.8	71.8	71.8	54	54.2	0	1	90	0.00	30.086 
11:00	72.1	72.1	72.1	54	54.5	0	1	90	0.00	30.088 
11:05	72.8	72.8	72.8	51	53.6	1	4	112	0.00	30.088 
11:10	73.0	73.0	73.0	52	54.3	1	4	90	0.00	30.088 
11:15	73.2	73.2	73.2	53	55.0	1	3	90	0.00	30.090 
11:20	73.2	73.2	73.2	52	54.5	1	4	90	0.00	30.090 
11:25	73.0	73.0	73.0	52	54.3	1	3	270	0.00	30.090 
11:30	72.7	72.7	72.7	52	54.0	0	2	248	0.00	30.090 
11:35	71.8	71.8	71.8	52	53.2	0	2	248	0.00	30.090 
11:40	70.9	70.9	70.9	52	52.4	1	3	248	0.00	30.090 
11:45	70.9	70.9	70.9	55	53.9	0	2	248	0.00	30.093 
11:50	71.5	71.5	71.5	56	55.0	0	2	248	0.00	30.093 
11:55	72.5	72.5	72.5	51	53.3	0	2	135	0.00	30.093 
12:00	73.2	73.2	73.2	50	53.4	1	3	112	0.00	30.087 
12:05	73.0	73.0	73.0	49	52.7	0	1	112	0.00	30.087 
12:10	73.0	73.0	73.0	51	53.8	0	1	112	0.00	30.087 
12:15	73.0	73.0	73.0	50	53.2	1	3	112	0.00	30.083 
12:20	72.7	72.7	72.7	54	55.1	1	3	248	0.00	30.083 
12:25	73.0	73.0	73.0	52	54.3	2	5	248	0.00	30.083 
12:30	73.7	73.7	73.7	51	54.4	1	4	248	0.00	30.081 
12:35	73.5	73.5	73.5	50	53.7	0	3	0	0.00	30.081 
12:40	73.3	73.3	73.3	49	53.0	0	3	22	0.00	30.081 
12:45	73.5	73.5	73.5	54	55.8	1	4	90	0.00	30.080 
12:50	73.3	73.3	73.3	50	53.5	1	3	90	0.00	30.080 
12:55	72.8	72.8	72.8	55	55.7	0	1	90	0.00	30.080 
13:00	72.8	72.8	72.8	51	53.6	0	2	90	0.00	30.079 
13:05	72.7	72.7	72.7	54	55.1	1	3	68	0.00	30.079 
13:10	73.3	73.3	73.3	52	54.6	1	2	338	0.00	30.079 
13:15	73.5	73.5	73.5	51	54.2	1	2	22	0.00	30.070 
13:20	73.7	73.7	73.7	52	55.0	1	3	45	0.00	30.070 
13:25	73.9	73.9	73.9	52	55.1	1	4	90	0.00	30.070 
13:30	73.3	73.3	73.3	51	54.1	1	3	90	0.00	30.065 
13:35	73.5	73.5	73.5	53	55.3	1	3	90	0.00	30.065 
13:40	73.9	73.9	73.9	52	55.1	0	2	90	0.00	30.065 
13:45	73.3	73.3	73.3	51	54.1	0	1	90	0.00	30.057 
13:50	72.8	72.8	72.8	51	53.6	0	1	90	0.00	30.057 
13:55	72.7	72.7	72.7	51	53.5	0	1	90	0.00	30.057 
14:00	72.8	72.8	72.8	51	53.6	0	1	90	0.00	30.053 
14:05	73.9	73.9	73.9	52	55.1	1	3	90	0.00	30.053 
14:10	74.6	74.6	74.6	49	54.2	2	4	90	0.00	30.053 
14:15	75.1	75.1	77.6	54	57.3	1	2	90	0.00	30.046 
14:20	75.3	75.3	77.7	50	55.4	1	3	90	0.00	30.046 
14:25	75.4	75.4	77.8	49	54.9	0	1	90	0.00	30.046 
14:30	76.0	76.0	78.0	46	53.7	0	2	90	0.00	30.042 
14:35	76.3	76.3	78.1	46	54.0	0	1	90	0.00	30.042 
14:40	75.6	75.6	77.9	48	54.5	1	3	90	0.00	30.042 
14:45	74.9	74.9	74.9	48	53.9	0	2	90	0.00	30.036 
14:50	74.6	74.6	74.6	50	54.7	1	2	90	0.00	30.036 
14:55	74.2	74.2	74.2	48	53.2	1	3	90	0.00	30.036 
15:00	74.2	74.2	74.2	48	53.2	1	4	112	0.00	30.036 
15:05	74.4	74.4	74.4	50	54.5	0	1	112	0.00	30.036 
15:10	74.4	74.4	74.4	47	52.8	1	4	112	0.00	30.036 
15:15	74.6	74.6	74.6	47	53.0	1	2	90	0.00	30.035 
15:20	74.7	74.7	74.7	46	52.5	1	2	90	0.00	30.035 
15:25	74.9	74.9	74.9	47	53.3	0	2	90	0.00	30.035 
15:30	75.3	75.3	77.7	46	53.1	1	4	90	0.00	30.031 
15:35	75.6	75.6	77.9	49	55.1	1	2	45	0.00	30.031 
15:40	76.7	76.7	78.3	46	54.3	1	2	338	0.00	30.031 
15:45	77.0	77.0	78.3	42	52.1	1	3	270	0.00	30.026 
15:50	77.0	77.0	78.5	46	54.6	1	4	270	0.00	30.026 
15:55	77.0	77.0	78.5	47	55.2	2	4	112	0.00	30.026 
16:00	76.8	76.8	78.4	48	55.6	1	4	112	0.00	30.021 
16:05	77.0	77.0	78.6	51	57.5	1	5	112	0.00	30.021 
16:10	77.6	77.6	78.7	43	53.3	0	2	135	0.00	30.021 
16:15	77.4	77.4	78.6	43	53.1	1	3	45	0.00	30.020 
16:20	77.4	77.4	78.6	44	53.8	0	2	22	0.00	30.020 
16:25	77.7	77.7	78.7	42	52.8	0	1	22	0.00	30.020 
16:30	77.7	77.7	78.5	39	50.7	1	3	45	0.00	30.018 
16:35	77.4	77.4	78.5	42	52.5	1	3	270	0.00	30.018 
16:40	76.1	76.1	78.0	43	52.0	0	2	292	0.00	30.018 
16:45	76.1	76.1	78.1	48	55.0	0	2	292	0.00	30.018 
16:50	76.7	76.7	78.3	46	54.3	0	1	292	0.00	30.018 
16:55	77.0	77.0	78.3	41	51.5	1	3	292	0.00	30.018 
17:00	76.8	76.8	78.4	46	54.4	1	2	270	0.00	30.017 
17:05	76.7	76.7	78.3	44	53.1	1	3	270	0.00	30.017 
17:10	76.8	76.8	78.3	43	52.6	1	2	248	0.00	30.017 
17:15	76.8	76.8	78.3	43	52.6	0	2	248	0.00	30.013 
17:20	76.3	76.3	78.0	43	52.1	0	2	248	0.00	30.013 
17:25	76.0	76.0	78.0	45	53.1	0	0	---	0.00	30.013 
17:30	75.4	75.4	77.8	46	53.2	0	1	248	0.00	30.018 
17:35	75.4	75.4	77.7	45	52.6	0	1	248	0.00	30.018 
17:40	75.3	75.3	77.7	45	52.5	0	1	270	0.00	30.018 
17:45	75.4	75.4	77.7	45	52.6	0	0	---	0.00	30.017 
17:50	76.0	76.0	78.0	47	54.3	0	1	270	0.00	30.017 
17:55	76.3	76.3	78.1	45	53.4	1	2	248	0.00	30.017 
18:00	76.5	76.5	78.2	44	52.9	1	2	248	0.00	30.013 
18:05	76.7	76.7	78.3	45	53.7	0	1	248	0.00	30.013 
18:10	76.7	76.7	78.3	45	53.7	1	2	135	0.00	30.013 
18:15	76.3	76.3	78.1	45	53.4	1	2	135	0.00	30.012 
18:20	76.0	76.0	78.0	45	53.1	1	3	112	0.00	30.012 
18:25	75.8	75.8	77.9	46	53.5	1	3	112	0.00	30.012 
18:30	75.6	75.6	77.9	47	53.9	2	3	90	0.00	30.006 
18:35	75.6	75.6	77.9	47	53.9	1	3	135	0.00	30.006 
18:40	75.8	75.8	77.9	46	53.5	0	2	112	0.00	30.006 
18:45	75.8	75.8	77.9	45	52.9	1	2	202	0.00	30.010 
18:50	76.0	76.0	78.0	44	52.5	0	2	248	0.00	30.010 
18:55	76.1	76.1	78.0	45	53.2	0	5	0	0.00	30.010 
19:00	76.0	76.0	78.0	44	52.5	1	4	248	0.00	30.005 
19:05	76.0	76.0	78.0	44	52.5	0	2	248	0.00	30.005 
19:10	75.8	75.8	77.9	45	52.9	0	3	248	0.00	30.005 
19:15	75.8	75.8	77.9	44	52.3	0	1	248	0.00	30.000 
19:20	75.6	75.6	77.8	46	53.3	0	1	248	0.00	30.000 
19:25	75.3	75.3	77.7	47	53.7	0	1	248	0.00	30.000 
19:30	74.6	74.6	74.6	48	53.6	0	1	248	0.00	30.002 
19:35	74.4	74.4	74.4	49	54.0	0	1	248	0.00	30.002 
19:40	74.4	74.4	74.4	49	54.0	0	1	248	0.00	30.002 
19:45	74.6	74.6	74.6	47	53.0	0	1	248	0.00	30.002 
19:50	74.4	74.4	74.4	48	53.4	0	1	248	0.00	30.002 
19:55	74.4	74.4	74.4	48	53.4	0	0	---	0.00	30.002 
20:00	74.4	74.4	74.4	49	54.0	0	0	---	0.00	30.001 
20:05	74.2	74.2	74.2	48	53.2	0	0	---	0.00	30.001 
20:10	74.2	74.2	74.2	49	53.8	0	1	248	0.00	30.001 
20:15	74.2	74.2	74.2	48	53.2	0	0	---	0.00	29.995 
20:20	74.2	74.2	74.2	47	52.7	0	0	---	0.00	29.995 
20:25	74.0	74.0	74.0	47	52.5	0	1	248	0.00	29.995 
20:30	73.9	73.9	73.9	49	53.5	0	0	---	0.00	29.996 
20:35	73.7	73.7	73.7	50	53.9	0	0	---	0.00	29.996 
20:40	73.3	73.3	73.3	50	53.5	0	0	---	0.00	29.996 
20:45	73.2	73.2	73.2	51	54.0	0	0	---	0.00	29.999 
20:50	72.8	72.8	72.8	52	54.1	0	0	---	0.00	29.999 
20:55	72.5	72.5	72.5	53	54.4	0	0	---	0.00	29.999 
21:00	72.1	72.1	72.1	54	54.5	0	0	---	0.00	30.004 
21:05	71.8	71.8	71.8	55	54.7	0	0	---	0.00	30.004 
21:10	71.5	71.5	71.5	55	54.5	0	0	---	0.00	30.004 
21:15	71.1	71.1	71.1	54	53.6	0	0	---	0.00	30.001 
21:20	70.9	70.9	70.9	55	53.9	0	0	---	0.00	30.001 
21:25	70.6	70.6	70.6	55	53.6	0	0	---	0.00	30.001 
21:30	70.3	70.3	70.3	55	53.4	0	0	---	0.00	29.997 
21:35	69.9	69.9	69.9	56	53.5	0	0	---	0.00	29.997 
21:40	69.6	69.6	69.6	57	53.7	0	0	---	0.00	29.997 
21:45	69.1	69.1	69.1	59	54.2	0	0	---	0.00	29.998 
21:50	68.6	68.6	68.6	60	54.1	0	0	---	0.00	29.998 
21:55	68.3	68.3	68.3	61	54.3	0	0	---	0.00	29.998 
22:00	67.6	67.6	67.6	62	54.1	0	0	---	0.00	30.001 
22:05	67.1	67.1	67.1	63	54.1	0	0	---	0.00	30.001 
22:10	66.6	66.6	66.6	65	54.5	0	0	---	0.00	30.001 
22:15	66.3	66.3	66.3	66	54.6	0	0	---	0.00	30.007 
22:20	65.8	65.8	65.8	67	54.5	0	0	---	0.00	30.007 
22:25	65.5	65.5	65.5	68	54.7	0	0	---	0.00	30.007 
22:30	65.2	65.2	65.2	69	54.8	0	0	---	0.00	30.012 
22:35	64.8	64.8	64.8	69	54.4	0	0	---	0.00	30.012 
22:40	64.5	64.5	64.5	70	54.5	0	0	---	0.00	30.012 
22:45	64.3	64.3	64.3	71	54.7	0	0	---	0.00	30.014 
22:50	64.0	64.0	64.0	72	54.8	0	0	---	0.00	30.014 
22:55	63.7	63.7	63.7	72	54.5	0	0	---	0.00	30.014 
23:00	63.4	63.4	63.4	73	54.6	0	0	---	0.00	30.013 
23:05	63.2	63.2	63.2	73	54.4	0	0	---	0.00	30.013 
23:10	63.1	63.1	63.1	74	54.7	0	0	---	0.00	30.013 
23:15	62.9	62.9	62.9	75	54.8	0	0	---	0.00	30.014 
23:20	62.9	62.9	62.9	75	54.8	0	0	---	0.00	30.014 
23:25	62.6	62.6	62.6	75	54.6	0	0	---	0.00	30.014 
23:30	62.6	62.6	62.6	75	54.6	0	0	---	0.00	30.014 
23:35	62.3	62.3	62.3	76	54.6	0	1	292	0.00	30.014 
23:40	62.6	62.6	62.6	74	54.2	0	1	292	0.00	30.014 
23:45	63.7	63.7	63.7	72	54.5	0	2	315	0.00	30.018 
23:50	64.3	64.3	64.3	70	54.3	0	1	315	0.00	30.018 
23:55	64.5	64.5	64.5	69	54.1	0	1	315	0.00	30.018 

CoCoRaHS
IN-AL-39
A2 Web Hosting
Creative Commons License
GoDaddy
Look for:

loaded 2017-10-19 14:28:42 • last modified 2010-11-18 10:43:29
Privacy PolicyDisclaimer
• wx.awcolley.com is powered by PmWiki v.2002016 •
• all content (unless otherwise noted) © 2017 A W Colley